Time;durP1;ratioP1;P1;durP2;ratioP2;P2;SDS_P1;SDS_P2;PMS_P1;PMS_P2;Temp;Humidity;BMP_temperature;BMP_pressure;BME280_temperature;BME280_humidity;BME280_pressure;Samples;Min_cycle;Max_cycle;Signal;HPM_P1;HPM_P2
2024/04/14 00:00:43;;;;;;;44.50;31.95;;;;;;;;;;5393051;26;20082;-51
2024/04/14 00:03:10;;;;;;;39.33;31.08;;;;;;;;;;5384515;26;20077;-49
2024/04/14 00:05:36;;;;;;;40.40;31.33;;;;;;;;;;5354822;26;20011;-51
2024/04/14 00:08:02;;;;;;;35.00;31.17;;;;;;;;;;5384889;26;20019;-50
2024/04/14 00:10:29;;;;;;;38.78;33.17;;;;;;;;;;5340380;26;20353;-51
2024/04/14 00:12:55;;;;;;;45.45;34.30;;;;;;;;;;5411674;26;20014;-50
2024/04/14 00:15:21;;;;;;;38.67;31.88;;;;;;;;;;5352998;26;19996;-55
2024/04/14 00:17:47;;;;;;;40.90;36.47;;;;;;;;;;5414651;26;19999;-50
2024/04/14 00:20:14;;;;;;;41.60;33.93;;;;;;;;;;5390633;26;20231;-53
2024/04/14 00:22:40;;;;;;;48.10;36.80;;;;;;;;;;5408972;26;20531;-51
2024/04/14 00:25:06;;;;;;;45.63;35.40;;;;;;;;;;5326535;26;20000;-53
2024/04/14 00:27:33;;;;;;;38.30;33.40;;;;;;;;;;5367739;26;20250;-52
2024/04/14 00:30:04;;;;;;;41.35;34.53;;;;;;;;;;5349064;26;19996;-53
2024/04/14 00:32:34;;;;;;;38.70;34.63;;;;;;;;;;5409529;26;20003;-51
2024/04/14 00:35:02;;;;;;;;;;;;;;;;;;5380781;26;20004;-50
2024/04/14 00:37:28;;;;;;;38.83;33.25;;;;;;;;;;5382061;26;19933;-49
2024/04/14 00:39:54;;;;;;;42.55;36.70;;;;;;;;;;5415540;26;20132;-50
2024/04/14 00:42:21;;;;;;;48.50;40.80;;;;;;;;;;5358820;26;20003;-51
2024/04/14 00:44:47;;;;;;;44.73;38.63;;;;;;;;;;5410627;26;20004;-50
2024/04/14 00:47:13;;;;;;;41.67;33.78;;;;;;;;;;5383906;26;20454;-50
2024/04/14 00:49:41;;;;;;;37.47;33.28;;;;;;;;;;5349165;26;19996;-50
2024/04/14 00:52:07;;;;;;;39.08;31.75;;;;;;;;;;5371457;26;20472;-50
2024/04/14 00:54:33;;;;;;;34.97;31.02;;;;;;;;;;5380603;26;20401;-50
2024/04/14 00:57:06;;;;;;;32.70;28.03;;;;;;;;;;5361953;26;20031;-49
2024/04/14 00:59:34;;;;;;;33.97;29.27;;;;;;;;;;5384309;26;20003;-53
2024/04/14 01:02:00;;;;;;;40.00;29.80;;;;;;;;;;5399740;26;19996;-50
2024/04/14 01:04:26;;;;;;;39.33;30.60;;;;;;;;;;5379619;26;19996;-49
2024/04/14 01:06:52;;;;;;;41.30;32.83;;;;;;;;;;5379692;26;20000;-51
2024/04/14 01:09:19;;;;;;;40.20;33.13;;;;;;;;;;5379913;26;20223;-49
2024/04/14 01:11:45;;;;;;;40.17;34.17;;;;;;;;;;5400428;26;20015;-49
2024/04/14 01:14:11;;;;;;;47.03;40.47;;;;;;;;;;5348875;26;20246;-49
2024/04/14 01:16:38;;;;;;;50.10;43.13;;;;;;;;;;5398338;26;20336;-51
2024/04/14 01:19:04;;;;;;;48.67;42.42;;;;;;;;;;5414047;26;20321;-49
2024/04/14 01:21:30;;;;;;;47.38;38.22;;;;;;;;;;5414576;26;20030;-49
2024/04/14 01:23:57;;;;;;;47.73;40.53;;;;;;;;;;5412187;26;20004;-50
2024/04/14 01:26:23;;;;;;;49.88;41.45;;;;;;;;;;5413710;26;20003;-49
2024/04/14 01:28:49;;;;;;;52.03;40.87;;;;;;;;;;5382420;26;20000;-51
2024/04/14 01:31:15;;;;;;;51.03;40.33;;;;;;;;;;5397173;26;20485;-50
2024/04/14 01:33:42;;;;;;;50.53;42.70;;;;;;;;;;5353742;26;20263;-49
2024/04/14 01:36:08;;;;;;;52.30;43.40;;;;;;;;;;5383017;26;20085;-49
2024/04/14 01:38:34;;;;;;;54.90;45.37;;;;;;;;;;5382997;26;20008;-51
2024/04/14 01:41:01;;;;;;;54.07;42.70;;;;;;;;;;5382523;26;20353;-50
2024/04/14 01:43:27;;;;;;;50.40;42.33;;;;;;;;;;5382974;26;20000;-49
2024/04/14 01:45:54;;;;;;;49.67;41.60;;;;;;;;;;5360239;26;20043;-49
2024/04/14 01:48:20;;;;;;;43.45;37.47;;;;;;;;;;5386741;26;20006;-49
2024/04/14 01:50:46;;;;;;;38.10;33.57;;;;;;;;;;5417142;26;20344;-50
2024/04/14 01:53:12;;;;;;;42.28;35.63;;;;;;;;;;5403294;26;20000;-48
2024/04/14 01:55:38;;;;;;;41.67;35.45;;;;;;;;;;5382234;26;20000;-49
2024/04/14 01:58:05;;;;;;;44.80;37.70;;;;;;;;;;5411179;26;20004;-50
2024/04/14 02:00:31;;;;;;;46.33;39.42;;;;;;;;;;5388004;26;19999;-49
2024/04/14 02:02:57;;;;;;;55.55;44.42;;;;;;;;;;5385965;26;20012;-50
2024/04/14 02:05:23;;;;;;;47.77;42.53;;;;;;;;;;5385393;26;19996;-49
2024/04/14 02:07:51;;;;;;;47.65;41.17;;;;;;;;;;5333015;26;20031;-51
2024/04/14 02:10:17;;;;;;;;;;;;;;;;;;5396377;26;20333;-49
2024/04/14 02:12:43;;;;;;;50.70;39.85;;;;;;;;;;5389467;26;20007;-51
2024/04/14 02:15:28;;;;;;;46.47;39.67;;;;;;;;;;5355500;26;19992;-50
2024/04/14 02:17:55;;;;;;;48.35;39.70;;;;;;;;;;5417461;26;20444;-50
2024/04/14 02:20:21;;;;;;;49.00;40.40;;;;;;;;;;5382652;26;20398;-50
2024/04/14 02:22:47;;;;;;;54.03;44.17;;;;;;;;;;5414487;26;20031;-49
2024/04/14 02:25:13;;;;;;;56.57;44.67;;;;;;;;;;5408012;26;20008;-50
2024/04/14 02:27:40;;;;;;;55.03;45.90;;;;;;;;;;5405838;26;20000;-50
2024/04/14 02:30:06;;;;;;;47.70;39.97;;;;;;;;;;5384961;26;20007;-51
2024/04/14 02:32:32;;;;;;;43.13;37.42;;;;;;;;;;5383935;26;20052;-50
2024/04/14 02:34:58;;;;;;;42.57;34.53;;;;;;;;;;5416705;26;20030;-51
2024/04/14 02:37:25;;;;;;;51.10;33.17;;;;;;;;;;5397281;26;20290;-49
2024/04/14 02:39:51;;;;;;;39.00;33.53;;;;;;;;;;5392869;26;20027;-50
2024/04/14 02:42:19;;;;;;;44.25;32.22;;;;;;;;;;5391202;26;19997;-51
2024/04/14 02:44:46;;;;;;;39.15;34.10;;;;;;;;;;5382003;26;19996;-50
2024/04/14 02:47:12;;;;;;;34.13;29.80;;;;;;;;;;5385653;26;20000;-51
2024/04/14 02:49:38;;;;;;;34.70;30.73;;;;;;;;;;5416350;26;20004;-57
2024/04/14 02:52:05;;;;;;;39.08;31.95;;;;;;;;;;5365802;26;20017;-50
2024/04/14 02:54:32;;;;;;;47.45;34.40;;;;;;;;;;5397448;26;20332;-50
2024/04/14 02:56:58;;;;;;;37.30;32.23;;;;;;;;;;5411588;26;20012;-50
2024/04/14 02:59:24;;;;;;;44.43;39.60;;;;;;;;;;5385639;26;20233;-50
2024/04/14 03:01:50;;;;;;;45.60;39.40;;;;;;;;;;5363703;26;20016;-50
2024/04/14 03:04:16;;;;;;;49.33;40.53;;;;;;;;;;5395423;26;19999;-50
2024/04/14 03:06:43;;;;;;;52.53;42.63;;;;;;;;;;5417044;26;20002;-51
2024/04/14 03:09:09;;;;;;;48.75;40.03;;;;;;;;;;5416838;26;20018;-53
2024/04/14 03:11:35;;;;;;;46.53;38.63;;;;;;;;;;5416515;26;19995;-55
2024/04/14 03:14:02;;;;;;;50.43;39.63;;;;;;;;;;5350889;26;20015;-52
2024/04/14 03:16:29;;;;;;;55.08;46.67;;;;;;;;;;5390771;26;19999;-49
2024/04/14 03:18:55;;;;;;;52.73;42.33;;;;;;;;;;5395635;26;20004;-50
2024/04/14 03:21:21;;;;;;;51.05;43.05;;;;;;;;;;5380977;26;20043;-50
2024/04/14 03:23:47;;;;;;;50.87;44.37;;;;;;;;;;5414254;26;20014;-50
2024/04/14 03:26:13;;;;;;;44.33;39.43;;;;;;;;;;5416578;26;19992;-53
2024/04/14 03:28:39;;;;;;;38.00;33.72;;;;;;;;;;5413595;26;20007;-52
2024/04/14 03:31:06;;;;;;;42.92;36.08;;;;;;;;;;5401883;26;20000;-51
2024/04/14 03:33:32;;;;;;;48.80;41.67;;;;;;;;;;5381118;26;20006;-50
2024/04/14 03:36:00;;;;;;;51.93;46.30;;;;;;;;;;5405728;26;19996;-50
2024/04/14 03:38:26;;;;;;;53.97;48.10;;;;;;;;;;5413995;26;20273;-53
2024/04/14 03:40:53;;;;;;;58.30;46.10;;;;;;;;;;5384846;26;20018;-52
2024/04/14 03:43:19;;;;;;;57.22;46.25;;;;;;;;;;5385025;26;20392;-50
2024/04/14 03:45:45;;;;;;;59.10;47.37;;;;;;;;;;5403420;26;20395;-50
2024/04/14 03:48:11;;;;;;;53.83;44.85;;;;;;;;;;5380623;26;20223;-50
2024/04/14 03:50:37;;;;;;;49.53;43.13;;;;;;;;;;5349707;26;20004;-50
2024/04/14 03:53:04;;;;;;;46.28;38.70;;;;;;;;;;5351992;26;20144;-51
2024/04/14 03:55:31;;;;;;;49.40;39.37;;;;;;;;;;5400296;26;20000;-55
2024/04/14 03:57:57;;;;;;;51.60;43.75;;;;;;;;;;5415412;26;20402;-55
2024/04/14 04:00:24;;;;;;;44.23;39.03;;;;;;;;;;5385434;26;20016;-50
2024/04/14 04:02:50;;;;;;;52.23;37.57;;;;;;;;;;5415121;26;20302;-50
2024/04/14 04:05:16;;;;;;;46.70;37.23;;;;;;;;;;5416119;26;20004;-55
2024/04/14 04:07:42;;;;;;;42.27;36.93;;;;;;;;;;5383981;26;20003;-53
2024/04/14 04:10:10;;;;;;;41.05;35.70;;;;;;;;;;5416223;26;20003;-53
2024/04/14 04:12:36;;;;;;;47.80;38.13;;;;;;;;;;5416172;26;20010;-53
2024/04/14 04:15:04;;;;;;;43.63;36.58;;;;;;;;;;5415731;26;20470;-54
2024/04/14 04:17:30;;;;;;;42.37;36.00;;;;;;;;;;5384936;26;20034;-54
2024/04/14 04:19:57;;;;;;;40.67;35.43;;;;;;;;;;5384373;26;20217;-51
2024/04/14 04:22:23;;;;;;;41.67;35.97;;;;;;;;;;5415718;26;19991;-50
2024/04/14 04:24:49;;;;;;;41.57;35.93;;;;;;;;;;5415794;26;20460;-51
2024/04/14 04:27:16;;;;;;;39.38;34.22;;;;;;;;;;5415886;26;20011;-52
2024/04/14 04:29:43;;;;;;;38.47;33.03;;;;;;;;;;5415637;26;20076;-51
2024/04/14 04:32:09;;;;;;;35.20;30.57;;;;;;;;;;5384485;26;20024;-54
2024/04/14 04:34:35;;;;;;;42.80;33.43;;;;;;;;;;5415917;26;20468;-53
2024/04/14 04:37:01;;;;;;;38.17;32.95;;;;;;;;;;5415773;26;19992;-53
2024/04/14 04:39:27;;;;;;;41.00;33.40;;;;;;;;;;5415607;26;20031;-52
2024/04/14 04:41:53;;;;;;;39.08;31.98;;;;;;;;;;5415052;26;20026;-53
2024/04/14 04:44:20;;;;;;;38.40;32.27;;;;;;;;;;5416238;26;20006;-54
2024/04/14 04:46:46;;;;;;;40.28;33.67;;;;;;;;;;5384169;26;19991;-52
2024/04/14 04:49:12;;;;;;;35.77;30.10;;;;;;;;;;5384312;26;20449;-50
2024/04/14 04:51:38;;;;;;;33.17;29.45;;;;;;;;;;5415360;26;20226;-51
2024/04/14 04:54:05;;;;;;;35.30;29.17;;;;;;;;;;5384095;26;19996;-50
2024/04/14 04:56:31;;;;;;;36.85;29.58;;;;;;;;;;5415290;26;20014;-56
2024/04/14 04:58:57;;;;;;;36.92;30.00;;;;;;;;;;5415154;26;20068;-53
2024/04/14 05:01:24;;;;;;;36.00;28.02;;;;;;;;;;5383728;26;20006;-50
2024/04/14 05:03:50;;;;;;;32.45;26.92;;;;;;;;;;5415234;26;20508;-54
2024/04/14 05:06:17;;;;;;;35.03;26.30;;;;;;;;;;5415439;26;20005;-52
2024/04/14 05:08:43;;;;;;;37.60;29.30;;;;;;;;;;5416656;26;20410;-51
2024/04/14 05:11:09;;;;;;;36.03;29.83;;;;;;;;;;5418226;26;19999;-51
2024/04/14 05:13:35;;;;;;;37.78;30.73;;;;;;;;;;5418376;26;19996;-50
2024/04/14 05:16:03;;;;;;;35.23;30.70;;;;;;;;;;5418611;26;20001;-53
2024/04/14 05:18:29;;;;;;;39.70;31.88;;;;;;;;;;5418512;26;19991;-51
2024/04/14 05:20:55;;;;;;;40.33;30.97;;;;;;;;;;5386858;26;20006;-55
2024/04/14 05:23:22;;;;;;;37.38;30.73;;;;;;;;;;5418298;26;20574;-55
2024/04/14 05:25:51;;;;;;;39.27;29.87;;;;;;;;;;5418170;26;19991;-52
2024/04/14 05:28:17;;;;;;;35.60;28.40;;;;;;;;;;5386646;26;20402;-51
2024/04/14 05:30:43;;;;;;;40.20;31.27;;;;;;;;;;5417932;26;20014;-50
2024/04/14 05:33:10;;;;;;;37.13;30.73;;;;;;;;;;5386930;26;19991;-54
2024/04/14 05:35:37;;;;;;;;;;;;;;;;;;5418785;26;20000;-50
2024/04/14 05:38:03;;;;;;;39.35;30.55;;;;;;;;;;5386867;26;19957;-56
2024/04/14 05:40:29;;;;;;;39.80;31.00;;;;;;;;;;5387035;26;19996;-50
2024/04/14 05:42:55;;;;;;;37.43;31.63;;;;;;;;;;5418374;26;19991;-53
2024/04/14 05:45:25;;;;;;;41.80;31.70;;;;;;;;;;5387019;26;19996;-52
2024/04/14 05:47:55;;;;;;;47.20;34.90;;;;;;;;;;5386639;26;19995;-55
2024/04/14 05:50:21;;;;;;;50.75;35.00;;;;;;;;;;5418029;26;19995;-53
2024/04/14 05:52:48;;;;;;;41.40;35.58;;;;;;;;;;5418032;26;19995;-50
2024/04/14 05:55:14;;;;;;;41.88;35.38;;;;;;;;;;5417938;26;19995;-53
2024/04/14 05:57:40;;;;;;;42.90;35.53;;;;;;;;;;5386973;26;19995;-53
2024/04/14 06:00:07;;;;;;;46.10;38.70;;;;;;;;;;5417649;26;20004;-56
2024/04/14 06:02:40;;;;;;;51.90;38.47;;;;;;;;;;5388348;26;20136;-52
2024/04/14 06:05:06;;;;;;;49.50;39.90;;;;;;;;;;5418114;26;20003;-53
2024/04/14 06:07:33;;;;;;;52.83;39.83;;;;;;;;;;5386315;26;20010;-53
2024/04/14 06:10:00;;;;;;;47.87;40.40;;;;;;;;;;5417332;26;20533;-51
2024/04/14 06:12:26;;;;;;;50.25;41.50;;;;;;;;;;5417634;26;20006;-50
2024/04/14 06:14:52;;;;;;;47.47;39.47;;;;;;;;;;5417845;26;19999;-53
2024/04/14 06:17:18;;;;;;;48.22;41.00;;;;;;;;;;5386700;26;19999;-50
2024/04/14 06:19:44;;;;;;;48.03;42.07;;;;;;;;;;5385958;26;19992;-52
2024/04/14 06:22:10;;;;;;;52.13;41.10;;;;;;;;;;5417315;26;20003;-54
2024/04/14 06:24:37;;;;;;;57.45;46.20;;;;;;;;;;5356804;26;20394;-53
2024/04/14 06:27:03;;;;;;;56.03;46.63;;;;;;;;;;5386289;26;20006;-51
2024/04/14 06:29:29;;;;;;;60.80;46.92;;;;;;;;;;5417592;26;20471;-56
2024/04/14 06:31:55;;;;;;;60.40;47.73;;;;;;;;;;5356746;26;20440;-51
2024/04/14 06:34:22;;;;;;;59.30;48.53;;;;;;;;;;5417661;26;20003;-51
2024/04/14 06:36:48;;;;;;;63.23;47.90;;;;;;;;;;5417182;26;20426;-51
2024/04/14 06:39:14;;;;;;;54.20;46.75;;;;;;;;;;5386061;26;20010;-53
2024/04/14 06:41:41;;;;;;;62.92;51.08;;;;;;;;;;5417002;26;20066;-54
2024/04/14 06:44:07;;;;;;;62.97;49.13;;;;;;;;;;5417052;26;20417;-56
2024/04/14 06:46:33;;;;;;;69.00;55.93;;;;;;;;;;5417104;26;19995;-51
2024/04/14 06:48:59;;;;;;;65.53;54.95;;;;;;;;;;5416959;26;19999;-51
2024/04/14 06:51:26;;;;;;;71.10;57.67;;;;;;;;;;5417071;26;20045;-52
2024/04/14 06:53:52;;;;;;;65.53;51.83;;;;;;;;;;5385659;26;20483;-51
2024/04/14 06:56:18;;;;;;;63.30;54.30;;;;;;;;;;5417471;26;19995;-52
2024/04/14 06:58:44;;;;;;;69.20;56.03;;;;;;;;;;5385897;26;20024;-54
2024/04/14 07:01:10;;;;;;;67.53;55.37;;;;;;;;;;5416772;26;20003;-51
2024/04/14 07:03:36;;;;;;;68.13;55.45;;;;;;;;;;5417068;26;20477;-51
2024/04/14 07:06:03;;;;;;;71.57;56.55;;;;;;;;;;5385436;26;20000;-52
2024/04/14 07:08:29;;;;;;;67.20;55.95;;;;;;;;;;5416901;26;20348;-51
2024/04/14 07:10:55;;;;;;;66.28;49.13;;;;;;;;;;5416812;26;20028;-56
2024/04/14 07:13:22;;;;;;;64.27;51.17;;;;;;;;;;5416830;26;20418;-53
2024/04/14 07:15:48;;;;;;;65.32;54.25;;;;;;;;;;5385656;26;20007;-51
2024/04/14 07:18:16;;;;;;;59.80;51.95;;;;;;;;;;5416784;26;20003;-54
2024/04/14 07:20:42;;;;;;;57.67;49.17;;;;;;;;;;5416663;26;20007;-53
2024/04/14 07:23:09;;;;;;;60.60;50.88;;;;;;;;;;5416829;26;20040;-50
2024/04/14 07:25:35;;;;;;;67.00;51.10;;;;;;;;;;5385410;26;20033;-51
2024/04/14 07:28:01;;;;;;;66.93;51.80;;;;;;;;;;5416509;26;20284;-50
2024/04/14 07:30:27;;;;;;;58.10;50.47;;;;;;;;;;5384782;26;20440;-50
2024/04/14 07:32:53;;;;;;;58.47;46.43;;;;;;;;;;5415941;26;20011;-50
2024/04/14 07:35:20;;;;;;;59.47;48.67;;;;;;;;;;5416498;26;20323;-50
2024/04/14 07:37:46;;;;;;;58.17;46.55;;;;;;;;;;5416469;26;20340;-52
2024/04/14 07:40:12;;;;;;;59.63;46.67;;;;;;;;;;5416737;26;20015;-52
2024/04/14 07:42:38;;;;;;;56.40;45.30;;;;;;;;;;5385719;26;20056;-52
2024/04/14 07:45:05;;;;;;;66.68;46.38;;;;;;;;;;5416410;26;20072;-55
2024/04/14 07:47:31;;;;;;;50.53;43.53;;;;;;;;;;5416530;26;20459;-51
2024/04/14 07:49:57;;;;;;;52.83;44.27;;;;;;;;;;5416089;26;19995;-50
2024/04/14 07:52:23;;;;;;;55.13;45.73;;;;;;;;;;5384908;26;20072;-50
2024/04/14 07:54:50;;;;;;;52.45;43.70;;;;;;;;;;5416477;26;19995;-54
2024/04/14 07:57:16;;;;;;;50.27;41.17;;;;;;;;;;5385186;26;20463;-53
2024/04/14 07:59:42;;;;;;;50.88;41.80;;;;;;;;;;5416423;26;20280;-52
2024/04/14 08:02:08;;;;;;;51.00;43.23;;;;;;;;;;5415965;26;20351;-55
2024/04/14 08:04:34;;;;;;;48.53;41.83;;;;;;;;;;5384642;26;20225;-52
2024/04/14 08:07:01;;;;;;;52.20;44.13;;;;;;;;;;5415885;26;20352;-50
2024/04/14 08:09:27;;;;;;;52.03;43.57;;;;;;;;;;5384990;26;20068;-50
2024/04/14 08:11:53;;;;;;;48.20;42.10;;;;;;;;;;5415904;26;20486;-50
2024/04/14 08:14:19;;;;;;;50.43;42.80;;;;;;;;;;5416038;26;20650;-50
2024/04/14 08:16:45;;;;;;;51.78;41.80;;;;;;;;;;5385015;26;20574;-50
2024/04/14 08:19:12;;;;;;;58.45;43.13;;;;;;;;;;5384406;26;20043;-50
2024/04/14 08:21:38;;;;;;;51.80;41.90;;;;;;;;;;5415543;26;20006;-50
2024/04/14 08:24:06;;;;;;;51.43;38.53;;;;;;;;;;5415767;26;20267;-50
2024/04/14 08:26:33;;;;;;;48.55;42.67;;;;;;;;;;5415723;26;20011;-50
2024/04/14 08:28:59;;;;;;;48.55;41.13;;;;;;;;;;5415869;26;19999;-52
2024/04/14 08:31:25;;;;;;;57.13;42.80;;;;;;;;;;5384376;26;19999;-52
2024/04/14 08:33:51;;;;;;;48.23;38.27;;;;;;;;;;5415560;26;20733;-53
2024/04/14 08:36:17;;;;;;;49.63;39.87;;;;;;;;;;5384273;26;20340;-52
2024/04/14 08:38:43;;;;;;;53.13;39.22;;;;;;;;;;5415638;26;20006;-54
2024/04/14 08:41:14;;;;;;;50.20;40.33;;;;;;;;;;5383971;26;19996;-54
2024/04/14 08:43:40;;;;;;;47.33;37.13;;;;;;;;;;5415463;26;20363;-53
2024/04/14 08:46:08;;;;;;;44.57;37.13;;;;;;;;;;5384098;26;19996;-50
2024/04/14 08:48:34;;;;;;;45.47;38.30;;;;;;;;;;5415346;26;19992;-51
2024/04/14 08:51:01;;;;;;;48.08;38.22;;;;;;;;;;5383802;26;20089;-50
2024/04/14 08:53:28;;;;;;;43.47;35.78;;;;;;;;;;5415135;26;19999;-53
2024/04/14 08:55:55;;;;;;;45.85;38.03;;;;;;;;;;5415562;26;20036;-51
2024/04/14 08:58:22;;;;;;;42.10;35.05;;;;;;;;;;5415218;26;20019;-53
2024/04/14 09:00:53;;;;;;;42.80;35.45;;;;;;;;;;5415122;26;20044;-53
2024/04/14 09:03:19;;;;;;;42.33;35.40;;;;;;;;;;5415435;26;20357;-50
2024/04/14 09:05:45;;;;;;;43.53;35.10;;;;;;;;;;5384081;26;20000;-50
2024/04/14 09:08:12;;;;;;;42.50;35.53;;;;;;;;;;5354710;26;20245;-56
2024/04/14 09:10:38;;;;;;;47.22;36.05;;;;;;;;;;5415044;26;20000;-55
2024/04/14 09:13:05;;;;;;;43.58;36.50;;;;;;;;;;5414828;26;19999;-51
2024/04/14 09:15:37;;;;;;;42.95;34.75;;;;;;;;;;5383513;26;19992;-56
2024/04/14 09:18:04;;;;;;;50.80;34.75;;;;;;;;;;5415244;26;20024;-52
2024/04/14 09:20:30;;;;;;;44.93;37.00;;;;;;;;;;5383526;26;20019;-55
2024/04/14 09:22:58;;;;;;;45.47;34.97;;;;;;;;;;5414715;26;20264;-55
2024/04/14 09:25:25;;;;;;;42.60;34.05;;;;;;;;;;5414760;26;20011;-53
2024/04/14 09:28:01;;;;;;;41.67;33.92;;;;;;;;;;5383171;26;20003;-51
2024/04/14 09:30:27;;;;;;;38.20;32.90;;;;;;;;;;5354348;26;20003;-51
2024/04/14 09:32:53;;;;;;;43.80;34.35;;;;;;;;;;5414562;26;19992;-50
2024/04/14 09:35:19;;;;;;;38.63;31.57;;;;;;;;;;5414949;26;20000;-52
2024/04/14 09:37:46;;;;;;;45.47;36.05;;;;;;;;;;5415007;26;20787;-50
2024/04/14 09:40:12;;;;;;;44.28;35.17;;;;;;;;;;5414162;26;20000;-53
2024/04/14 09:42:39;;;;;;;41.30;33.20;;;;;;;;;;5414313;26;20006;-50
2024/04/14 09:45:06;;;;;;;43.45;34.53;;;;;;;;;;5414837;26;19992;-50
2024/04/14 09:47:33;;;;;;;38.80;32.30;;;;;;;;;;5414762;26;20471;-55
2024/04/14 09:49:59;;;;;;;35.92;29.33;;;;;;;;;;5414693;26;20004;-50
2024/04/14 09:52:26;;;;;;;29.55;24.33;;;;;;;;;;5414405;26;19995;-51
2024/04/14 09:54:53;;;;;;;38.13;24.20;;;;;;;;;;5416106;26;20864;-51
2024/04/14 09:57:21;;;;;;;34.70;27.85;;;;;;;;;;5418282;26;19996;-50
2024/04/14 09:59:47;;;;;;;38.53;29.02;;;;;;;;;;5418426;26;20488;-51
2024/04/14 10:02:17;;;;;;;38.05;29.52;;;;;;;;;;5386649;26;19995;-50
2024/04/14 10:04:45;;;;;;;32.38;24.90;;;;;;;;;;5417975;26;20031;-56
2024/04/14 10:07:11;;;;;;;32.45;25.05;;;;;;;;;;5417665;26;20456;-55
2024/04/14 10:09:38;;;;;;;36.78;26.63;;;;;;;;;;5417503;26;20023;-55
2024/04/14 10:12:04;;;;;;;29.90;25.70;;;;;;;;;;5417717;26;19996;-50
2024/04/14 10:14:40;;;;;;;32.60;26.23;;;;;;;;;;5417832;26;20068;-50
2024/04/14 10:17:06;;;;;;;36.42;26.70;;;;;;;;;;5386433;26;20389;-51
2024/04/14 10:19:35;;;;;;;33.90;27.27;;;;;;;;;;5417663;26;19999;-51
2024/04/14 10:22:02;;;;;;;29.65;25.90;;;;;;;;;;5417559;26;20002;-50
2024/04/14 10:24:32;;;;;;;32.22;27.48;;;;;;;;;;5417526;26;20006;-52
2024/04/14 10:27:07;;;;;;;34.13;26.42;;;;;;;;;;5417564;26;19995;-52
2024/04/14 10:29:33;;;;;;;34.90;27.30;;;;;;;;;;5417181;26;20046;-56
2024/04/14 10:32:00;;;;;;;29.58;23.35;;;;;;;;;;5417220;26;20451;-53
2024/04/14 10:34:30;;;;;;;37.92;24.40;;;;;;;;;;5417220;26;19999;-51
2024/04/14 10:36:57;;;;;;;33.92;23.50;;;;;;;;;;5386199;26;19995;-50
2024/04/14 10:39:24;;;;;;;;;;;;;;;;;;5418076;26;20003;-55
2024/04/14 10:41:50;;;;;;;26.23;22.65;;;;;;;;;;5404522;26;19931;-56
2024/04/14 10:44:17;;;;;;;31.15;24.45;;;;;;;;;;5351215;26;20012;-54
2024/04/14 10:46:45;;;;;;;29.30;23.65;;;;;;;;;;5381276;26;19997;-50
2024/04/14 10:49:12;;;;;;;30.80;22.73;;;;;;;;;;5385265;26;20015;-52
2024/04/14 10:51:39;;;;;;;31.67;23.20;;;;;;;;;;5350365;26;20000;-49
2024/04/14 10:54:05;;;;;;;28.08;25.00;;;;;;;;;;5381801;26;20004;-50
2024/04/14 10:56:31;;;;;;;33.47;23.67;;;;;;;;;;5383532;26;20456;-51
2024/04/14 10:58:58;;;;;;;32.40;23.83;;;;;;;;;;5387496;26;20039;-49
2024/04/14 11:01:24;;;;;;;31.20;24.45;;;;;;;;;;5397304;26;20142;-50
2024/04/14 11:03:51;;;;;;;29.35;23.88;;;;;;;;;;5384314;26;19992;-52
2024/04/14 11:06:18;;;;;;;28.38;22.13;;;;;;;;;;5413143;26;20003;-53
2024/04/14 11:08:46;;;;;;;29.38;23.20;;;;;;;;;;5351440;26;20059;-52
2024/04/14 11:11:13;;;;;;;29.48;22.00;;;;;;;;;;5382536;26;20472;-49
2024/04/14 11:13:39;;;;;;;27.50;22.75;;;;;;;;;;5410808;26;20012;-52
2024/04/14 11:16:06;;;;;;;27.70;23.80;;;;;;;;;;5414069;26;20028;-49
2024/04/14 11:18:34;;;;;;;31.27;24.95;;;;;;;;;;5416925;26;19996;-51
2024/04/14 11:21:01;;;;;;;27.58;22.95;;;;;;;;;;5406078;26;20061;-50
2024/04/14 11:23:27;;;;;;;30.80;20.38;;;;;;;;;;5402481;26;20015;-52
2024/04/14 11:25:54;;;;;;;26.63;18.98;;;;;;;;;;5357911;26;19999;-49
2024/04/14 11:28:20;;;;;;;;;;;;;;;;;;5408250;26;20011;-51
2024/04/14 11:30:47;;;;;;;26.35;21.15;;;;;;;;;;5382015;26;19924;-50
2024/04/14 11:33:13;;;;;;;33.05;22.85;;;;;;;;;;5384941;26;20353;-52
2024/04/14 11:35:39;;;;;;;22.25;18.40;;;;;;;;;;5413851;26;20014;-49
2024/04/14 11:38:06;;;;;;;27.05;20.50;;;;;;;;;;5353494;26;19999;-50
2024/04/14 11:40:32;;;;;;;25.00;18.88;;;;;;;;;;5384581;26;20007;-54
2024/04/14 11:42:58;;;;;;;25.13;19.92;;;;;;;;;;5384857;26;20003;-50
2024/04/14 11:45:24;;;;;;;26.30;20.90;;;;;;;;;;5368281;26;20415;-52
2024/04/14 11:47:51;;;;;;;28.55;22.17;;;;;;;;;;5347071;26;20003;-51
2024/04/14 11:50:17;;;;;;;25.77;19.85;;;;;;;;;;5381654;26;20000;-50
2024/04/14 11:52:43;;;;;;;19.92;17.83;;;;;;;;;;5382485;26;20440;-51
2024/04/14 11:55:09;;;;;;;22.27;19.25;;;;;;;;;;5414351;26;20452;-48
2024/04/14 11:57:36;;;;;;;26.63;20.60;;;;;;;;;;5354279;26;19996;-51
2024/04/14 12:00:03;;;;;;;23.25;18.85;;;;;;;;;;5379957;26;20019;-52
2024/04/14 12:02:39;;;;;;;22.85;19.42;;;;;;;;;;5378789;26;20002;-51
2024/04/14 12:05:05;;;;;;;24.90;20.58;;;;;;;;;;5377404;26;20027;-50
2024/04/14 12:07:35;;;;;;;23.30;20.48;;;;;;;;;;5347799;26;20503;-50
2024/04/14 12:10:01;;;;;;;24.38;21.73;;;;;;;;;;5380396;26;20000;-53
2024/04/14 12:12:27;;;;;;;23.70;19.15;;;;;;;;;;5370728;26;20004;-49
2024/04/14 12:14:54;;;;;;;22.88;19.02;;;;;;;;;;5414545;26;20128;-51
2024/04/14 12:17:20;;;;;;;26.15;18.75;;;;;;;;;;5380695;26;20000;-52
2024/04/14 12:19:47;;;;;;;23.70;19.88;;;;;;;;;;5349678;26;19996;-53
2024/04/14 12:22:14;;;;;;;22.58;17.27;;;;;;;;;;5379301;26;20004;-54
2024/04/14 12:24:40;;;;;;;21.90;16.88;;;;;;;;;;5413477;26;20072;-49
2024/04/14 12:27:06;;;;;;;21.88;17.58;;;;;;;;;;5411551;26;19999;-51
2024/04/14 12:29:32;;;;;;;22.02;18.42;;;;;;;;;;5378749;26;19999;-52
2024/04/14 12:31:58;;;;;;;21.17;15.82;;;;;;;;;;5383123;26;20436;-50
2024/04/14 12:34:26;;;;;;;23.17;18.00;;;;;;;;;;5380574;26;20427;-50
2024/04/14 12:36:52;;;;;;;19.65;17.48;;;;;;;;;;5347560;26;20007;-49
2024/04/14 12:39:18;;;;;;;21.70;17.35;;;;;;;;;;5368696;26;20035;-52
2024/04/14 12:41:44;;;;;;;18.27;16.45;;;;;;;;;;5396486;26;20000;-49
2024/04/14 12:44:11;;;;;;;25.40;17.55;;;;;;;;;;5378787;26;20399;-50
2024/04/14 12:46:37;;;;;;;21.10;18.05;;;;;;;;;;5379639;26;20019;-50
2024/04/14 12:49:03;;;;;;;19.83;16.30;;;;;;;;;;5379717;26;20000;-53
2024/04/14 12:51:30;;;;;;;18.15;13.68;;;;;;;;;;5387037;26;20007;-49
2024/04/14 12:53:57;;;;;;;18.02;15.68;;;;;;;;;;5390238;26;20014;-52
2024/04/14 12:56:25;;;;;;;19.20;16.30;;;;;;;;;;5378432;26;19993;-53
2024/04/14 12:58:52;;;;;;;20.38;15.80;;;;;;;;;;5413600;26;19995;-54
2024/04/14 13:01:18;;;;;;;18.80;15.88;;;;;;;;;;5395459;26;20011;-55
2024/04/14 13:03:46;;;;;;;18.02;15.65;;;;;;;;;;5347179;26;20367;-53
2024/04/14 13:06:12;;;;;;;19.70;16.25;;;;;;;;;;5377866;26;20361;-49
2024/04/14 13:08:38;;;;;;;19.45;15.30;;;;;;;;;;5380010;26;20004;-51
2024/04/14 13:11:05;;;;;;;20.23;14.10;;;;;;;;;;5381399;26;19992;-49
2024/04/14 13:13:31;;;;;;;18.17;13.93;;;;;;;;;;5366794;26;20003;-48
2024/04/14 13:15:57;;;;;;;22.42;15.70;;;;;;;;;;5380037;26;20008;-49
2024/04/14 13:18:23;;;;;;;21.42;14.68;;;;;;;;;;5389226;26;20459;-48
2024/04/14 13:20:50;;;;;;;16.02;12.60;;;;;;;;;;5399344;26;20015;-52
2024/04/14 13:23:19;;;;;;;17.58;13.38;;;;;;;;;;5402516;26;20024;-49
2024/04/14 13:25:45;;;;;;;16.90;12.93;;;;;;;;;;5357865;26;20015;-51
2024/04/14 13:28:11;;;;;;;14.45;12.93;;;;;;;;;;5380329;26;20009;-54
2024/04/14 13:30:37;;;;;;;;;;;;;;;;;;5356676;26;20004;-55
2024/04/14 13:33:03;;;;;;;14.98;12.00;;;;;;;;;;5385986;26;19925;-54
2024/04/14 13:35:30;;;;;;;;;;;;;;;;;;5400666;26;19996;-55
2024/04/14 13:37:57;;;;;;;13.95;9.52;;;;;;;;;;5397564;26;19941;-55
2024/04/14 13:40:24;;;;;;;11.23;9.73;;;;;;;;;;5393323;26;20000;-56
2024/04/14 13:42:50;;;;;;;13.63;8.77;;;;;;;;;;5361662;26;20032;-55
2024/04/14 13:45:18;;;;;;;12.27;8.73;;;;;;;;;;5392478;26;20010;-55
2024/04/14 13:47:44;;;;;;;9.57;6.43;;;;;;;;;;5370335;26;20356;-51
2024/04/14 13:50:10;;;;;;;9.80;5.13;;;;;;;;;;5391861;26;20370;-53
2024/04/14 13:52:36;;;;;;;16.25;6.65;;;;;;;;;;5397122;26;20003;-55
2024/04/14 13:55:03;;;;;;;9.77;6.97;;;;;;;;;;5365411;26;20013;-52
2024/04/14 13:57:29;;;;;;;14.40;7.88;;;;;;;;;;5397607;26;20360;-56
2024/04/14 13:59:56;;;;;;;13.57;7.72;;;;;;;;;;5390466;26;20013;-55
2024/04/14 14:02:22;;;;;;;8.40;6.95;;;;;;;;;;5411322;26;20512;-52
2024/04/14 14:04:48;;;;;;;13.77;7.53;;;;;;;;;;5417029;26;20028;-56
2024/04/14 14:07:14;;;;;;;12.38;6.90;;;;;;;;;;5417839;26;19992;-53
2024/04/14 14:09:41;;;;;;;15.95;6.82;;;;;;;;;;5385811;26;20097;-50
2024/04/14 14:12:07;;;;;;;15.43;8.15;;;;;;;;;;5417311;26;19999;-54
2024/04/14 14:14:33;;;;;;;9.43;6.63;;;;;;;;;;5398817;26;20081;-51
2024/04/14 14:16:59;;;;;;;9.90;6.88;;;;;;;;;;5409978;26;20080;-55